Aviation Digital Data Service (ADDS)

Output produced by TAFs form (0607 UTC 29 March 2015)
found at http://www.aviationweather.gov/adds/tafs/
 
KMDT 290540Z 2906/3006 34008KT P6SM SCT100 
     FM300100 22007KT P6SM SCT250